Terminal Aerodrome Forecast
Issued by NWS

Home | Current Version | Previous Version | Text Only | Print | Product List | Glossary On
Versions: 1 2 3 4 5 6 7 8 9 10 11 12
000
FTUS46 KMTR 152335
TAFSNS
TAF
KSNS 152335Z 1600/1624 29010KT P6SM FEW200
     FM160200 27006KT P6SM FEW200
     FM161800 29010G18KT P6SM FEW200
     FM162300 29012KT P6SM FEW200=

USA.gov is the U.S. government's official web portal to all federal, state and local government web resources and services.